Latest Weather Observations for Meekatharra

IDW60801

Issued at 5:43 am WST Tuesday 6 December 2022 (issued every 10 minutes, with the page automatically refreshed every 10 minutes)

About weather observations | Map of weather stations | Latest weather observations for WA | Other Formats
Station Details ID: 007045 Name: MEEKATHARRA AIRPORT Lat: -26.61 Lon: 118.54 Height: 517.0 m
Data from the previous 72 hours. | See also: Recent months at Meekatharra
Date/Time
WST
Temp
°C
App
Temp
°C
Dew
Point
°C
Rel
Hum
%
Delta-T
°C
Wind Press
QNH
hPa
Press
MSL
hPa
Rain since
9am
mm
Dir  Spd
km/h
Gust
km/h
Spd
kts
Gust
kts
06/05:30am 24.1 20.9 10.0 41 7.9 SW 17 20 9 11 1009.3 1005.4 0.0
06/05:00am 24.3 21.2 8.7 37 8.6 SW 15 20 8 11 1009.1 1005.2 0.0
06/04:30am 24.7 21.4 8.2 35 9.0 SSW 15 20 8 11 1008.8 1004.8 0.0
06/04:00am 25.3 21.0 7.0 31 9.8 SSW 19 24 10 13 1008.4 1004.4 0.0
06/03:30am 25.9 21.2 6.0 28 10.5 SW 20 30 11 16 1008.3 1004.3 0.0
06/03:00am 26.3 22.6 4.7 25 11.2 SW 13 20 7 11 1008.3 1004.3 0.0
06/02:30am 26.9 23.1 4.0 23 11.8 WSW 13 20 7 11 1008.4 1004.4 0.0
06/02:00am 27.4 23.6 3.8 22 12.2 W 13 17 7 9 1008.5 1004.5 0.0
06/01:30am 26.8 23.5 2.7 21 12.1 SW 9 11 5 6 1008.7 1004.7 0.0
06/01:00am 27.4 23.7 2.5 20 12.5 WSW 11 11 6 6 1008.8 1004.8 0.0
06/12:30am 27.6 24.2 1.9 19 12.8 WSW 9 9 5 5 1009.0 1005.1 0.0
06/12:00am 28.5 25.1 1.9 18 13.3 WSW 9 11 5 6 1009.2 1005.3 0.0
 
Date/Time
WST
Temp
°C
App
Temp
°C
Dew
Point
°C
Rel
Hum
%
Delta-T
°C
Wind Press
QNH
hPa
Press
MSL
hPa
Rain since
9am
mm
Dir  Spd
km/h
Gust
km/h
Spd
kts
Gust
kts
05/11:30pm 29.4 26.0 1.8 17 13.9 WSW 9 11 5 6 1009.6 1005.7 0.0
05/11:00pm 30.0 26.5 1.5 16 14.3 SW 9 15 5 8 1009.8 1005.9 0.0
05/10:30pm 30.6 26.4 1.9 16 14.6 SW 13 17 7 9 1010.0 1006.1 0.0
05/10:00pm 31.3 26.9 0.6 14 15.3 WSW 13 15 7 8 1010.0 1006.1 0.0
05/09:30pm 32.2 27.8 0.3 13 15.9 WSW 13 17 7 9 1010.0 1006.1 0.0
05/09:00pm 32.7 28.7 0.7 13 16.2 W 11 17 6 9 1009.9 1006.0 0.0
05/08:30pm 33.5 29.1 0.2 12 16.7 WSW 13 17 7 9 1009.6 1005.7 0.0
05/08:00pm 34.4 29.1 -0.3 11 17.4 W 17 24 9 13 1009.4 1005.5 0.0
05/07:30pm 35.1 29.4 -1.1 10 18.0 WSW 19 26 10 14 1009.0 1005.1 0.0
05/07:00pm 35.6 29.7 -0.7 10 18.2 W 20 33 11 18 1008.6 1004.6 0.0
05/06:30pm 36.4 30.4 -1.5 9 18.9 WSW 20 35 11 19 1008.3 1004.3 0.0
05/06:00pm 37.5 31.2 -0.7 9 19.4 W 22 35 12 19 1007.9 1004.0 0.0
05/05:30pm 38.0 30.8 -1.9 8 19.9 W 26 39 14 21 1007.6 1003.7 0.0
05/05:00pm 38.4 30.9 -1.6 8 20.2 W 28 39 15 21 1007.6 1003.7 0.0
05/04:37pm 38.7 31.0 -3.2 7 20.6 W 28 46 15 25 1007.5 1003.6 0.0
05/04:30pm 39.2 31.9 -2.9 7 20.9 WNW 26 37 14 20 1007.7 1003.8 0.0
05/04:07pm 39.7 32.4 -2.5 7 21.1 WNW 26 59 14 32 1007.6 1003.7 0.0
05/04:00pm 39.3 32.2 -1.0 8 20.6 W 26 41 14 22 1007.8 1003.9 0.0
05/03:30pm 39.7 32.1 -2.5 7 21.1 WNW 28 41 15 22 1007.9 1004.0 0.0
05/03:07pm 39.8 32.2 -2.4 7 21.2 WNW 28 46 15 25 1008.0 1004.1 0.0
05/03:00pm 39.9 33.0 -2.4 7 21.3 WNW 24 39 13 21 1008.3 1004.3 0.0
05/02:30pm 39.1 30.9 -1.1 8 20.5 W 32 43 17 23 1008.5 1004.5 0.0
05/02:04pm 40.0 32.4 -2.3 7 21.3 W 28 46 15 25 1008.7 1004.7 0.0
05/02:00pm 39.8 31.4 -2.4 7 21.2 W 32 46 17 25 1008.8 1004.8 0.0
05/01:30pm 39.5 32.8 -0.8 8 20.7 WNW 24 39 13 21 1009.1 1005.2 0.0
05/01:00pm 39.3 32.6 -1.0 8 20.6 WNW 24 41 13 22 1009.4 1005.5 0.0
05/12:30pm 39.2 33.3 -1.1 8 20.5 WNW 20 39 11 21 1009.9 1006.0 0.0
05/12:00pm 38.0 31.8 -0.3 9 19.6 WNW 22 35 12 19 1010.4 1006.4 0.0
05/11:30am 37.7 32.1 0.9 10 19.2 WNW 20 35 11 19 1010.8 1006.9 0.0
05/11:00am 36.3 31.1 2.4 12 18.0 NW 19 26 10 14 1011.0 1007.1 0.0
05/10:30am 35.5 31.7 3.9 14 17.0 WNW 13 26 7 14 1011.3 1007.4 0.0
05/10:00am 34.9 30.6 3.5 14 16.8 WNW 15 24 8 13 1011.6 1007.7 0.0
05/09:30am 34.1 31.0 7.2 19 15.2 WNW 13 20 7 11 1011.8 1007.9 0.0
05/09:00am 32.4 30.2 8.0 22 13.8 WSW 9 15 5 8 1012.0 1008.1 0.0
05/08:30am 31.7 29.5 8.0 23 13.4 W 9 15 5 8 1012.0 1008.1 0.0
05/08:00am 30.7 28.5 7.8 24 12.8 SW 9 13 5 7 1011.8 1007.9 0.0
05/07:30am 29.5 26.8 7.4 25 12.2 SW 11 15 6 8 1011.8 1007.9 0.0
05/07:00am 28.7 25.6 7.3 26 11.8 SW 13 17 7 9 1011.6 1007.7 0.0
05/06:30am 28.1 24.9 6.8 26 11.6 SW 13 17 7 9 1011.2 1007.3 0.0
05/06:00am 27.3 24.7 6.1 26 11.3 SW 9 13 5 7 1010.8 1006.9 0.0
05/05:30am 26.0 23.4 6.1 28 10.6 WSW 9 13 5 7 1010.6 1006.6 0.0
05/05:00am 26.0 23.3 5.6 27 10.7 WSW 9 11 5 6 1010.2 1006.3 0.0
05/04:30am 26.2 23.3 6.3 28 10.6 SW 11 15 6 8 1010.1 1006.2 0.0
05/04:00am 25.5 23.2 5.7 28 10.4 SW 7 9 4 5 1009.9 1006.0 0.0
05/03:30am 26.5 25.5 5.5 26 11.1 CALM 0 0 0 0 1009.8 1005.9 0.0
05/03:00am 27.4 26.0 5.6 25 11.6 SE 2 6 1 3 1009.9 1006.0 0.0
05/02:30am 28.3 25.6 5.8 24 12.0 SE 9 13 5 7 1009.9 1006.0 0.0
05/02:00am 29.0 25.7 6.4 24 12.3 SSE 13 17 7 9 1010.1 1006.2 0.0
05/01:30am 28.9 25.8 5.7 23 12.4 SSE 11 15 6 8 1010.1 1006.2 0.0
05/01:00am 29.8 26.4 5.8 22 13.0 SSW 13 17 7 9 1009.9 1006.0 0.0
05/12:30am 30.6 26.8 5.8 21 13.4 SW 15 22 8 12 1010.0 1006.1 0.0
05/12:00am 31.1 26.3 5.5 20 13.9 SW 20 26 11 14 1010.1 1006.2 0.0
 
Date/Time
WST
Temp
°C
App
Temp
°C
Dew
Point
°C
Rel
Hum
%
Delta-T
°C
Wind Press
QNH
hPa
Press
MSL
hPa
Rain since
9am
mm
Dir  Spd
km/h
Gust
km/h
Spd
kts
Gust
kts
04/11:30pm 31.7 26.8 5.3 19 14.3 SW 20 30 11 16 1010.2 1006.3 0.0
04/11:00pm 32.3 27.4 5.0 18 14.7 SW 20 28 11 15 1010.6 1006.6 0.0
04/10:30pm 32.7 28.0 5.3 18 14.9 SW 19 24 10 13 1010.7 1006.7 0.0
04/10:00pm 33.2 28.8 4.9 17 15.3 SW 17 24 9 13 1010.9 1007.0 0.0
04/09:30pm 34.0 28.6 4.6 16 15.9 SW 22 28 12 15 1010.8 1006.9 0.0
04/09:00pm 34.4 28.9 4.0 15 16.3 SW 22 32 12 17 1010.7 1006.7 0.0
04/08:30pm 35.1 29.1 3.6 14 16.9 SW 24 33 13 18 1010.4 1006.4 0.0
04/08:00pm 35.7 31.0 5.1 15 16.9 WSW 19 26 10 14 1010.0 1006.1 0.0
04/07:30pm 36.2 31.2 4.5 14 17.3 W 20 32 11 17 1009.6 1005.7 0.0
04/07:00pm 36.8 31.5 4.9 14 17.6 WSW 22 32 12 17 1009.3 1005.4 0.0
04/06:30pm 37.5 32.5 4.4 13 18.2 W 20 32 11 17 1009.0 1005.1 0.0
04/06:00pm 38.5 33.2 2.8 11 19.3 W 20 30 11 16 1008.7 1004.7 0.0
04/05:30pm 39.0 32.4 1.9 10 19.8 WSW 26 35 14 19 1008.5 1004.5 0.0
04/05:00pm 39.4 33.6 2.2 10 20.0 WSW 22 32 12 17 1008.1 1004.2 0.0
04/04:30pm 40.2 34.5 2.8 10 20.3 WNW 22 32 12 17 1008.0 1004.1 0.0
04/04:00pm 40.8 35.5 1.7 9 21.0 WSW 19 28 10 15 1008.0 1004.1 0.0
04/03:30pm 40.6 36.0 1.6 9 20.9 W 15 37 8 20 1008.0 1004.1 0.0
04/03:00pm 41.1 36.6 2.0 9 21.1 WNW 15 32 8 17 1008.3 1004.3 0.0
04/02:30pm 40.2 34.8 1.3 9 20.7 WSW 19 32 10 17 1008.5 1004.5 0.0
04/02:00pm 39.5 34.3 2.2 10 20.0 WSW 19 35 10 19 1008.8 1004.8 0.0
04/01:30pm 39.9 34.7 2.5 10 20.2 W 19 30 10 16 1009.2 1005.3 0.0
04/01:00pm 39.9 36.2 2.5 10 20.2 SW 11 20 6 11 1009.5 1005.6 0.0
04/12:30pm 39.8 36.1 2.5 10 20.1 W 11 17 6 9 1009.9 1006.0 0.0
04/12:00pm 38.3 33.1 2.7 11 19.1 WSW 19 28 10 15 1010.2 1006.3 0.0
04/11:30am 38.2 33.6 3.8 12 18.8 SW 17 28 9 15 1010.5 1006.5 0.0
04/11:00am 38.0 32.8 2.5 11 19.0 SW 19 32 10 17 1010.8 1006.9 0.0
04/10:30am 38.0 33.0 3.7 12 18.7 S 19 30 10 16 1011.0 1007.1 0.0
04/10:00am 36.9 31.4 4.0 13 17.9 SSW 22 33 12 18 1011.1 1007.2 0.0
04/09:30am 35.6 29.5 3.0 13 17.3 SSW 24 37 13 20 1011.2 1007.3 0.0
04/09:00am 34.9 28.2 3.5 14 16.8 SSW 28 39 15 21 1011.1 1007.2 0.0
04/08:30am 34.3 28.0 4.0 15 16.3 S 26 35 14 19 1011.1 1007.2 0.0
04/08:00am 32.0 26.4 5.5 19 14.4 S 24 30 13 16 1011.0 1007.1 0.0
04/07:30am 30.4 25.6 5.6 21 13.4 SSW 20 28 11 15 1011.1 1007.2 0.0
04/07:00am 29.0 23.9 5.8 23 12.5 SSW 22 30 12 16 1011.1 1007.2 0.0
04/06:30am 27.9 22.7 5.5 24 11.9 SSW 22 32 12 17 1010.9 1007.0 0.0
04/06:00am 27.0 21.5 5.9 26 11.2 SSW 24 32 13 17 1010.4 1006.4 0.0
04/05:30am 26.6 22.1 6.1 27 10.9 SSW 19 26 10 14 1010.1 1006.2 0.0
04/05:00am 26.6 21.9 6.1 27 10.9 SSW 20 26 11 14 1009.8 1005.9 0.0
04/04:30am 27.0 22.5 5.9 26 11.2 SSW 19 26 10 14 1009.8 1005.9 0.0
04/04:00am 27.5 22.8 5.1 24 11.8 SSW 19 26 10 14 1009.8 1005.9 0.0
04/03:30am 28.1 23.7 5.0 23 12.2 SW 17 26 9 14 1009.5 1005.6 0.0
04/03:00am 28.7 24.2 4.2 21 12.8 SSW 17 20 9 11 1009.6 1005.7 0.0
04/02:30am 29.3 24.5 4.7 21 13.0 SSW 19 26 10 14 1009.5 1005.6 0.0
04/02:00am 29.7 25.2 4.4 20 13.3 SSW 17 20 9 11 1009.6 1005.7 0.0
04/01:30am 30.3 25.5 4.9 20 13.5 SSW 19 26 10 14 1009.7 1005.8 0.0
04/01:00am 30.8 25.8 4.5 19 14.0 SSW 20 26 11 14 1009.6 1005.7 0.0
04/12:30am 31.5 26.2 5.1 19 14.2 SSW 22 32 12 17 1009.7 1005.8 0.0
04/12:00am 32.1 27.1 4.8 18 14.7 SSW 20 28 11 15 1009.6 1005.7 0.0
 
Date/Time
WST
Temp
°C
App
Temp
°C
Dew
Point
°C
Rel
Hum
%
Delta-T
°C
Wind Press
QNH
hPa
Press
MSL
hPa
Rain since
9am
mm
Dir  Spd
km/h
Gust
km/h
Spd
kts
Gust
kts
03/11:30pm 32.6 28.3 5.2 18 14.9 SSW 17 22 9 12 1009.5 1005.6 0.0
03/11:00pm 33.1 28.3 4.8 17 15.3 SSW 19 26 10 14 1009.5 1005.6 0.0
03/10:30pm 33.9 29.1 5.4 17 15.6 SSW 20 30 11 16 1009.5 1005.6 0.0
03/10:00pm 34.3 29.4 4.9 16 16.0 SW 20 30 11 16 1009.4 1005.5 0.0
03/09:30pm 34.9 29.5 4.4 15 16.5 SW 22 33 12 18 1009.2 1005.3 0.0
03/09:00pm 35.4 30.3 3.9 14 17.0 SW 20 32 11 17 1008.9 1004.9 0.0
03/08:30pm 36.1 31.6 2.2 12 17.9 WSW 15 24 8 13 1008.6 1004.6 0.0
03/08:00pm 36.6 32.2 2.6 12 18.1 SW 15 19 8 10 1008.1 1004.2 0.0
03/07:30pm 37.3 32.4 1.9 11 18.7 SW 17 24 9 13 1007.8 1003.9 0.0
03/07:00pm 37.8 33.3 2.3 11 18.9 WSW 15 24 8 13 1007.5 1003.6 0.0
03/06:30pm 38.6 34.0 1.6 10 19.6 WSW 15 24 8 13 1007.2 1003.3 0.0
03/06:00pm 39.2 34.3 2.0 10 19.9 WSW 17 26 9 14 1006.9 1002.9 0.0
03/05:30pm 39.8 34.2 1.0 9 20.5 W 20 30 11 16 1006.7 1002.7 0.0
03/05:00pm 40.4 35.4 1.4 9 20.8 WSW 17 26 9 14 1006.5 1002.5 0.0
03/04:30pm 40.6 36.0 1.6 9 20.9 W 15 22 8 12 1006.5 1002.5 0.0
03/04:00pm 41.1 36.2 2.0 9 21.1 WNW 17 30 9 16 1006.5 1002.5 0.0
03/03:30pm 40.4 36.9 1.4 9 20.8 WNW 9 17 5 9 1006.7 1002.7 0.0
03/03:00pm 40.6 36.0 1.6 9 20.9 W 15 22 8 12 1007.0 1003.0 0.0
03/02:30pm 40.2 35.2 1.3 9 20.7 WNW 17 26 9 14 1007.4 1003.5 0.0
03/02:00pm 41.1 36.2 2.0 9 21.1 NNW 17 33 9 18 1007.5 1003.6 0.0
03/01:41pm 39.8 35.0 2.5 10 20.1 NE 17 43 9 23 1007.7 1003.8 0.0
03/01:30pm 39.4 36.4 2.2 10 19.9 SSE 7 15 4 8 1007.9 1004.0 0.0
03/01:00pm 40.0 35.3 1.1 9 20.6 SSW 15 20 8 11 1008.3 1004.3 0.0
03/12:30pm 39.9 34.7 2.5 10 20.2 N 19 26 10 14 1008.7 1004.7 0.0
03/12:00pm 40.6 36.4 1.6 9 20.9 WNW 13 24 7 13 1008.9 1004.9 0.0
03/11:30am 38.9 35.5 1.8 10 19.7 WSW 9 17 5 9 1009.2 1005.3 0.0
03/11:00am 38.4 34.2 1.4 10 19.5 NW 13 26 7 14 1009.5 1005.6 0.0
03/10:30am 38.1 34.2 1.2 10 19.4 SSE 11 20 6 11 1009.9 1006.0 0.0
03/10:00am 37.9 34.4 1.0 10 19.3 E 9 20 5 11 1010.1 1006.2 0.0
03/09:30am 36.9 32.5 0.3 10 18.8 ESE 13 22 7 12 1010.1 1006.2 0.0
03/09:00am 36.0 31.1 -0.4 10 18.4 E 15 24 8 13 1010.2 1006.3 0.0
03/08:30am 34.2 29.9 0.8 12 17.0 ESE 13 20 7 11 1010.8 1006.9 0.0
03/08:00am 32.8 28.1 0.8 13 16.2 SE 15 20 8 11 1010.8 1006.9 0.0
03/07:30am 31.1 25.5 1.4 15 15.0 SE 20 26 11 14 1010.6 1006.6 0.0
03/07:00am 30.1 25.3 2.4 17 14.2 SSE 17 26 9 14 1010.2 1006.3 0.0
03/06:30am 28.4 25.2 3.3 20 12.9 S 9 15 5 8 1010.0 1006.1 0.0
03/06:00am 27.0 23.9 3.5 22 12.0 S 9 11 5 6 1009.6 1005.7 0.0

Other formats

Comma delimited format used in spreadsheet applications
http://www.bom.gov.au/fwo/IDW60801/IDW60801.94430.axf

JavaScript Object Notation format (JSON) in row-major order
http://www.bom.gov.au/fwo/IDW60801/IDW60801.94430.json

Data quality

Most of these data are generated automatically and are frequently updated. Quality checks on data are not normally performed. It is possible for incorrect values to appear. Refer to information at About Latest Weather Observations and please check the disclaimer before using these data.